createdAt,value
2023-02-17T00:03:43.572Z,7.80
2023-02-17T00:08:07.578Z,7.80
2023-02-17T00:12:32.851Z,7.90
2023-02-17T00:16:56.742Z,8.00
2023-02-17T00:21:23.656Z,8.00
2023-02-17T00:25:47.579Z,8.00
2023-02-17T00:30:13.478Z,8.00
2023-02-17T00:34:37.673Z,8.00
2023-02-17T00:39:01.422Z,8.10
2023-02-17T00:43:25.312Z,8.10
2023-02-17T00:47:52.332Z,8.00
2023-02-17T00:52:16.308Z,8.00
2023-02-17T00:56:40.437Z,8.00
2023-02-17T01:01:04.618Z,8.00
2023-02-17T01:05:30.010Z,8.00
2023-02-17T01:09:54.027Z,8.00
2023-02-17T01:14:18.416Z,8.00
2023-02-17T01:18:42.687Z,8.10
2023-02-17T01:23:12.362Z,8.10
2023-02-17T01:27:36.928Z,8.10
2023-02-17T01:38:34.545Z,8.20
2023-02-17T01:42:58.500Z,8.20
2023-02-17T01:47:22.523Z,8.20
2023-02-17T01:51:49.540Z,8.30
2023-02-17T01:56:16.573Z,8.30
2023-02-17T02:00:41.479Z,8.40
2023-02-17T02:05:07.111Z,8.40
2023-02-17T02:09:36.588Z,8.50
2023-02-17T02:14:02.892Z,8.60
2023-02-17T02:18:43.166Z,8.60
2023-02-17T02:23:49.859Z,8.60
2023-02-17T02:28:28.201Z,8.70
2023-02-17T02:33:00.232Z,8.70
2023-02-17T02:37:29.176Z,8.70
2023-02-17T02:41:56.681Z,8.70
2023-02-17T02:46:21.851Z,8.70
2023-02-17T02:51:14.739Z,8.70
2023-02-17T02:55:46.274Z,8.70
2023-02-17T03:00:13.701Z,8.70
2023-02-17T03:04:36.462Z,8.70
2023-02-17T03:09:02.396Z,8.60
2023-02-17T03:13:21.127Z,8.50
2023-02-17T03:17:41.009Z,8.50
2023-02-17T03:22:05.341Z,8.40
2023-02-17T03:26:24.730Z,8.40
2023-02-17T03:30:44.443Z,8.50
2023-02-17T03:35:02.319Z,8.50
2023-02-17T03:39:26.256Z,8.50
2023-02-17T03:43:51.870Z,8.60
2023-02-17T03:48:15.650Z,8.60
2023-02-17T03:52:39.514Z,8.70
2023-02-17T03:57:03.649Z,8.70
2023-02-17T04:01:29.016Z,8.80
2023-02-17T04:05:54.555Z,8.80
2023-02-17T04:10:18.851Z,8.80
2023-02-17T04:14:42.685Z,8.80
2023-02-17T04:19:08.461Z,8.90
2023-02-17T04:23:32.532Z,8.90
2023-02-17T04:27:56.274Z,8.90
2023-02-17T04:32:20.141Z,8.90
2023-02-17T04:36:45.475Z,9.00
2023-02-17T04:41:09.392Z,9.00
2023-02-17T04:45:33.394Z,9.00
2023-02-17T04:49:57.351Z,9.10
2023-02-17T04:54:23.327Z,9.10
2023-02-17T04:58:47.342Z,9.10
2023-02-17T05:03:11.345Z,9.10
2023-02-17T05:07:35.204Z,9.10
2023-02-17T05:12:03.044Z,9.10
2023-02-17T05:16:27.095Z,9.20
2023-02-17T05:20:51.305Z,9.20
2023-02-17T05:25:15.485Z,9.20
2023-02-17T05:29:40.908Z,9.20
2023-02-17T05:34:04.830Z,9.20
2023-02-17T05:38:28.790Z,9.20
2023-02-17T05:42:52.816Z,9.30
2023-02-17T05:47:18.056Z,9.30
2023-02-17T05:51:41.914Z,9.30
2023-02-17T05:56:06.459Z,9.30
2023-02-17T06:00:30.572Z,9.30
2023-02-17T06:04:55.964Z,9.20
2023-02-17T06:09:20.445Z,9.30
2023-02-17T06:13:44.271Z,9.30
2023-02-17T06:18:08.222Z,9.30
2023-02-17T06:22:33.552Z,9.40
2023-02-17T06:26:57.573Z,9.40
2023-02-17T06:31:21.373Z,9.40
2023-02-17T06:35:49.602Z,9.50
2023-02-17T06:40:16.072Z,9.50
2023-02-17T06:44:39.975Z,9.60
2023-02-17T06:49:03.787Z,9.70
2023-02-17T06:53:27.869Z,9.70
2023-02-17T06:57:53.252Z,9.70
2023-02-17T07:02:17.291Z,9.80
2023-02-17T07:06:41.932Z,9.80
2023-02-17T07:11:07.095Z,9.80
2023-02-17T07:15:32.428Z,9.80
2023-02-17T07:19:56.523Z,9.90
2023-02-17T07:24:20.443Z,9.90
2023-02-17T07:28:44.562Z,9.90
2023-02-17T07:33:10.084Z,10.00
2023-02-17T07:37:34.191Z,10.00
2023-02-17T07:42:01.072Z,10.00
2023-02-17T07:46:25.744Z,10.00
2023-02-17T07:50:50.953Z,10.00
2023-02-17T07:55:15.045Z,10.00
2023-02-17T07:59:39.257Z,10.00
2023-02-17T08:04:03.818Z,10.00
2023-02-17T08:08:47.175Z,10.00
2023-02-17T08:13:21.428Z,10.00
2023-02-17T08:17:45.716Z,10.10
2023-02-17T08:22:09.794Z,10.10
2023-02-17T08:26:35.197Z,10.20
2023-02-17T08:30:59.289Z,10.30
2023-02-17T08:35:26.574Z,10.40
2023-02-17T08:39:50.702Z,10.40
2023-02-17T08:44:18.773Z,10.50
2023-02-17T08:48:45.306Z,10.60
2023-02-17T08:53:09.517Z,10.70
2023-02-17T08:57:34.516Z,10.70
2023-02-17T09:02:00.322Z,10.80
2023-02-17T09:06:36.949Z,10.90
2023-02-17T09:11:01.301Z,11.00
2023-02-17T09:15:25.478Z,11.00
2023-02-17T09:19:50.803Z,11.00
2023-02-17T09:24:15.128Z,11.00
2023-02-17T09:28:39.962Z,11.10
2023-02-17T09:33:05.381Z,11.10
2023-02-17T09:37:30.940Z,11.20
2023-02-17T09:41:55.529Z,11.20
2023-02-17T09:46:24.402Z,11.30
2023-02-17T09:50:55.254Z,11.40
2023-02-17T09:55:26.382Z,11.50
2023-02-17T09:59:55.748Z,11.60
2023-02-17T10:04:24.338Z,11.60
2023-02-17T10:08:53.742Z,11.60
2023-02-17T10:13:21.346Z,11.50
2023-02-17T10:17:51.986Z,11.50
2023-02-17T10:22:19.387Z,11.50
2023-02-17T10:27:00.060Z,11.50
2023-02-17T10:31:44.277Z,11.40
2023-02-17T10:36:20.120Z,11.40
2023-02-17T10:40:48.195Z,11.40
2023-02-17T10:45:22.066Z,11.40
2023-02-17T10:49:51.423Z,11.40
2023-02-17T10:54:25.885Z,11.50
2023-02-17T10:58:56.117Z,11.60
2023-02-17T11:03:21.412Z,11.70
2023-02-17T11:07:47.929Z,11.80
2023-02-17T11:12:14.740Z,12.00
2023-02-17T11:16:41.539Z,12.20
2023-02-17T11:21:08.434Z,12.30
2023-02-17T11:25:35.660Z,12.40
2023-02-17T11:30:09.095Z,12.60
2023-02-17T11:34:38.027Z,12.60
2023-02-17T11:39:20.600Z,12.60
2023-02-17T11:43:56.416Z,12.50
2023-02-17T11:48:41.280Z,12.50
2023-02-17T11:53:27.374Z,12.50
2023-02-17T11:58:11.230Z,12.60
2023-02-17T12:03:03.706Z,12.70
2023-02-17T12:07:54.094Z,12.90
2023-02-17T12:12:25.431Z,13.00
2023-02-17T12:17:00.554Z,13.10
2023-02-17T12:21:49.382Z,13.10
2023-02-17T12:26:20.952Z,13.20
2023-02-17T12:30:57.982Z,13.20
2023-02-17T12:35:25.440Z,13.20
2023-02-17T12:39:59.120Z,13.30
2023-02-17T12:44:28.395Z,13.30
2023-02-17T12:48:59.898Z,13.20
2023-02-17T12:53:41.873Z,13.20
2023-02-17T12:58:13.162Z,13.20
2023-02-17T13:02:37.505Z,13.20
2023-02-17T13:07:09.505Z,13.20
2023-02-17T13:11:36.028Z,13.20
2023-02-17T13:16:11.225Z,13.20
2023-02-17T13:20:56.985Z,13.20
2023-02-17T13:25:36.308Z,13.20
2023-02-17T13:30:04.728Z,13.20
2023-02-17T13:34:33.879Z,13.20
2023-02-17T13:39:01.722Z,13.20
2023-02-17T13:43:25.730Z,13.20
2023-02-17T13:47:51.695Z,13.20
2023-02-17T13:52:22.834Z,13.20
2023-02-17T13:56:52.508Z,13.20
2023-02-17T14:01:18.444Z,13.30
2023-02-17T14:05:45.774Z,13.40
2023-02-17T14:10:23.149Z,13.40
2023-02-17T14:14:47.278Z,13.50
2023-02-17T14:19:13.346Z,13.50
2023-02-17T14:23:48.897Z,13.60
2023-02-17T14:28:22.041Z,13.60
2023-02-17T14:32:45.860Z,13.60
2023-02-17T14:37:12.110Z,13.70
2023-02-17T14:41:36.066Z,13.70
2023-02-17T14:46:01.388Z,13.80
2023-02-17T14:50:25.538Z,13.90
2023-02-17T14:54:49.444Z,14.00
2023-02-17T14:59:13.432Z,14.10
2023-02-17T15:03:38.796Z,14.10
2023-02-17T15:08:03.198Z,14.20
2023-02-17T15:12:28.293Z,14.20
2023-02-17T15:16:52.282Z,14.20
2023-02-17T15:21:26.125Z,14.20
2023-02-17T15:25:50.847Z,14.10
2023-02-17T15:30:17.471Z,14.10
2023-02-17T15:34:41.518Z,14.00
2023-02-17T15:39:07.244Z,14.00
2023-02-17T15:48:06.304Z,14.00
2023-02-17T15:52:30.233Z,14.00
2023-02-17T15:56:56.669Z,14.00
2023-02-17T16:01:28.381Z,14.00
2023-02-17T16:05:53.521Z,14.00
2023-02-17T16:10:19.585Z,14.00
2023-02-17T16:14:46.338Z,14.00
2023-02-17T16:19:13.355Z,14.00
2023-02-17T16:23:37.196Z,13.90
2023-02-17T16:28:01.244Z,13.80
2023-02-17T16:32:27.125Z,13.80
2023-02-17T16:36:53.564Z,13.80
2023-02-17T16:41:18.591Z,13.80
2023-02-17T16:45:53.105Z,13.90
2023-02-17T16:50:36.875Z,13.90
2023-02-17T16:55:00.987Z,13.90
2023-02-17T16:59:26.998Z,13.90
2023-02-17T17:03:50.902Z,13.80
2023-02-17T17:08:20.575Z,13.50
2023-02-17T17:12:46.365Z,13.30
2023-02-17T17:17:12.432Z,13.00
2023-02-17T17:21:36.233Z,12.70
2023-02-17T17:26:01.852Z,12.60
2023-02-17T17:30:29.048Z,12.40
2023-02-17T17:34:53.088Z,12.20
2023-02-17T17:39:18.993Z,12.10
2023-02-17T17:43:45.677Z,12.10
2023-02-17T17:48:13.387Z,12.00
2023-02-17T17:52:37.232Z,12.00
2023-02-17T17:57:01.156Z,12.00
2023-02-17T18:01:26.509Z,12.00
2023-02-17T18:05:50.650Z,12.00
2023-02-17T18:10:15.470Z,12.00
2023-02-17T18:14:45.183Z,12.00
2023-02-17T18:19:10.476Z,12.00
2023-02-17T18:23:37.437Z,12.00
2023-02-17T18:28:01.349Z,12.10
2023-02-17T18:32:25.231Z,12.00
2023-02-17T18:36:50.478Z,12.10
2023-02-17T18:41:19.192Z,12.20
2023-02-17T18:45:42.975Z,12.20
2023-02-17T18:50:08.730Z,12.20
2023-02-17T19:10:54.096Z,12.20
2023-02-17T19:15:20.931Z,12.30
2023-02-17T19:19:45.003Z,12.30
2023-02-17T19:24:09.548Z,12.20
2023-02-17T19:28:36.425Z,12.10
2023-02-17T19:33:00.390Z,12.00
2023-02-17T19:37:25.222Z,11.90
2023-02-17T19:41:49.319Z,11.80
2023-02-17T19:46:15.689Z,11.70
2023-02-17T19:50:39.985Z,11.50
2023-02-17T19:54:59.744Z,11.50
2023-02-17T19:59:16.919Z,11.40
2023-02-17T20:03:36.916Z,11.30
2023-02-17T20:07:57.307Z,11.40
2023-02-17T20:12:17.641Z,11.50
2023-02-17T20:16:35.343Z,11.50
2023-02-17T20:20:55.243Z,11.50
2023-02-17T20:25:14.343Z,11.60
2023-02-17T20:29:34.104Z,11.70
2023-02-17T20:33:53.871Z,11.80
2023-02-17T20:38:13.291Z,11.90
2023-02-17T20:42:32.776Z,11.90
2023-02-17T20:46:57.333Z,12.00
2023-02-17T20:51:21.516Z,12.00
2023-02-17T20:55:47.459Z,11.90
2023-02-17T21:00:16.836Z,11.70
2023-02-17T21:04:40.949Z,11.60
2023-02-17T21:09:07.764Z,11.40
2023-02-17T21:13:33.186Z,11.30
2023-02-17T21:17:57.026Z,11.20
2023-02-17T21:22:20.966Z,11.00
2023-02-17T21:26:44.938Z,10.80
2023-02-17T21:31:10.888Z,10.50
2023-02-17T21:35:34.926Z,10.30
2023-02-17T21:39:59.146Z,10.20
2023-02-17T21:44:40.323Z,10.10
2023-02-17T21:49:05.907Z,10.00
2023-02-17T21:53:29.913Z,9.90
2023-02-17T21:57:54.318Z,9.90
2023-02-17T22:02:18.222Z,9.90
2023-02-17T22:06:43.897Z,9.90
2023-02-17T22:11:07.904Z,9.90
2023-02-17T22:15:26.390Z,9.90
2023-02-17T22:19:50.283Z,9.90
2023-02-17T22:24:16.371Z,9.90
2023-02-17T22:28:40.804Z,9.90
2023-02-17T22:33:04.964Z,10.00
2023-02-17T22:37:28.801Z,9.90
2023-02-17T22:41:54.997Z,9.90
2023-02-17T22:46:21.761Z,9.90
2023-02-17T22:50:45.866Z,9.90
2023-02-17T22:55:09.749Z,9.90
2023-02-17T22:59:34.998Z,9.90
2023-02-17T23:03:59.355Z,9.90
2023-02-17T23:08:23.423Z,9.90
2023-02-17T23:12:47.419Z,9.80
2023-02-17T23:17:14.898Z,9.80
2023-02-17T23:21:43.210Z,9.80
2023-02-17T23:26:07.766Z,9.80
2023-02-17T23:30:31.983Z,9.80
2023-02-17T23:34:57.356Z,9.80
2023-02-17T23:39:21.236Z,9.70
2023-02-17T23:43:45.058Z,9.60
2023-02-17T23:48:09.045Z,9.60
2023-02-17T23:52:35.474Z,9.50
2023-02-17T23:56:59.505Z,9.50
